LSNO2: Neosho River nr Langley (Spillway)

Data processed at Thu Apr 19 2018 12:12


All information presented herein is the property of the government of the United States of America and may be revised or deleted at any time without prior notice.
Dissemination of this information without the expressed written consent of the Public Affairs Office, Tulsa District U.S. Army Corps of Engineers is strictly prohibited.
These data are gathered electronically and, as presented, have not undergone any form of quality control. These data are not guaranteed to be valid or correct.
Go to home page.
Go to station list.

Upstream stations:

Downstream station:
Previous Day
Next Day
Current Day
    
SHEF ID:       LSNO2     Neosho River (spillway) near Lan
STATION TYPE:  

                STAGE  RIV-FLOW  BAT-LOAD
                   ft       cfs      volt
              Ccp-Rev   Ccp-Rev   Ccp-Rev
(US/Central)
04/18 00:00     12.90     16050     12.73
04/18 01:00     12.79     15555     12.73
04/18 02:00     12.88     15960     12.73
04/18 03:00     12.77     15465     12.73
04/18 04:00     12.66     14970     12.65
04/18 05:00     12.66     14970     12.65
04/18 06:00     12.49     14205     12.65
04/18 07:00     12.70     15150     12.65
04/18 08:00     12.69     15105     12.65
04/18 09:00     12.52     14340     12.65
04/18 10:00     12.62     14790     12.81
04/18 11:00     12.56     14520     13.13
04/18 12:00     12.69     15105     13.21
04/18 13:00     12.70     15150     13.29
04/18 14:00     12.57     14565     13.53
04/18 15:00     12.61     14745     13.53
04/18 16:00     12.69     15105     13.53
04/18 17:00     12.61     14745     13.44
04/18 18:00     12.58     14610     13.29
04/18 19:00     12.56     14520     13.13
04/18 20:00     14.46     23408     12.89
04/18 21:00     14.94     25713     12.81
04/18 22:00     14.19     22112     12.73
04/18 23:00     12.35     13575     12.73